Time;durP1;ratioP1;P1;durP2;ratioP2;P2;SDS_P1;SDS_P2;PMS_P1;PMS_P2;Temp;Humidity;BMP_temperature;BMP_pressure;BME280_temperature;BME280_humidity;BME280_pressure;Samples;Min_cycle;Max_cycle;Signal;HPM_P1;HPM_P2
2023/12/28 00:01:08;;;;;;;12.45;6.28;;;4.10;99.90;;;;;;4908116;29;20234;-72
2023/12/28 00:03:34;;;;;;;11.35;6.32;;;3.90;99.90;;;;;;4907440;29;20068;-72
2023/12/28 00:06:00;;;;;;;12.75;6.28;;;3.90;99.90;;;;;;4908188;29;20041;-72
2023/12/28 00:08:25;;;;;;;11.20;6.18;;;3.80;99.90;;;;;;4907923;29;20047;-72
2023/12/28 00:10:51;;;;;;;13.30;6.55;;;3.80;99.90;;;;;;4907298;29;20045;-71
2023/12/28 00:13:17;;;;;;;10.85;6.50;;;3.90;99.90;;;;;;4907932;29;20021;-73
2023/12/28 00:15:43;;;;;;;9.38;5.68;;;3.90;99.90;;;;;;4907393;29;20161;-72
2023/12/28 00:18:08;;;;;;;12.95;6.20;;;3.80;99.90;;;;;;4907831;29;20051;-74
2023/12/28 00:20:34;;;;;;;12.93;5.95;;;3.90;99.90;;;;;;4907272;29;20025;-70
2023/12/28 00:23:00;;;;;;;9.00;4.88;;;3.90;99.90;;;;;;4907974;29;20029;-71
2023/12/28 00:25:28;;;;;;;11.55;5.85;;;3.90;99.90;;;;;;4907740;29;20048;-72
2023/12/28 00:27:54;;;;;;;10.85;5.75;;;4.00;99.90;;;;;;4907970;29;20060;-74
2023/12/28 00:30:20;;;;;;;11.10;5.60;;;4.00;99.90;;;;;;4890907;29;20032;-73
2023/12/28 00:32:45;;;;;;;10.98;5.85;;;3.90;99.90;;;;;;4890526;29;20096;-73
2023/12/28 00:35:11;;;;;;;10.48;5.43;;;3.90;99.90;;;;;;4906577;29;20069;-73
2023/12/28 00:37:40;;;;;;;9.85;5.07;;;3.80;99.90;;;;;;4907128;29;20056;-74
2023/12/28 00:40:09;;;;;;;9.07;4.82;;;3.80;99.90;;;;;;4907773;29;20192;-72
2023/12/28 00:42:35;;;;;;;9.85;4.68;;;3.70;99.90;;;;;;4905809;29;20031;-74
2023/12/28 00:45:01;;;;;;;8.43;4.80;;;3.70;99.90;;;;;;4906417;29;20037;-72
2023/12/28 00:47:26;;;;;;;8.38;5.28;;;3.70;99.90;;;;;;4907500;29;20024;-73
2023/12/28 00:49:52;;;;;;;9.73;4.95;;;3.70;99.90;;;;;;4906977;29;20028;-72
2023/12/28 00:52:18;;;;;;;7.97;5.10;;;3.70;99.90;;;;;;4906159;29;20032;-74
2023/12/28 00:54:43;;;;;;;9.73;5.03;;;3.70;99.90;;;;;;4905663;29;20326;-72
2023/12/28 00:57:09;;;;;;;9.55;5.30;;;3.70;99.90;;;;;;4907496;29;20047;-73
2023/12/28 00:59:35;;;;;;;7.97;4.80;;;3.80;99.90;;;;;;4905545;29;20308;-73
2023/12/28 01:02:00;;;;;;;6.95;4.00;;;3.90;99.90;;;;;;4890636;29;20031;-74
2023/12/28 01:04:26;;;;;;;9.05;4.90;;;3.90;99.90;;;;;;4907635;29;20224;-72
2023/12/28 01:06:52;;;;;;;7.80;4.40;;;3.90;99.70;;;;;;4905356;29;20064;-73
2023/12/28 01:09:19;;;;;;;12.82;5.05;;;3.90;99.70;;;;;;4906843;29;20040;-73
2023/12/28 01:11:45;;;;;;;9.35;4.97;;;4.00;99.70;;;;;;4889748;29;20020;-72
2023/12/28 01:14:11;;;;;;;10.10;4.72;;;4.00;99.90;;;;;;4890421;29;20051;-72
2023/12/28 01:16:39;;;;;;;10.60;4.93;;;4.00;99.90;;;;;;4906457;29;20099;-73
2023/12/28 01:19:05;;;;;;;9.95;5.03;;;3.90;99.90;;;;;;4906799;29;20109;-73
2023/12/28 01:21:31;;;;;;;8.65;5.10;;;3.90;99.90;;;;;;4906362;29;20330;-73
2023/12/28 01:23:57;;;;;;;10.93;5.30;;;3.80;99.90;;;;;;4906625;29;20036;-72
2023/12/28 01:26:22;;;;;;;8.85;4.95;;;3.70;99.90;;;;;;4906931;29;20028;-74
2023/12/28 01:28:48;;;;;;;9.63;4.75;;;3.70;99.90;;;;;;4905882;29;20068;-74
2023/12/28 01:31:14;;;;;;;8.77;4.28;;;3.80;99.90;;;;;;4890075;29;20252;-73
2023/12/28 01:33:39;;;;;;;7.90;4.43;;;4.00;99.90;;;;;;4906327;29;20024;-72
2023/12/28 01:36:18;;;;;;;7.80;4.10;;;4.10;99.50;;;;;;4907037;29;20032;-73
2023/12/28 01:38:45;;;;;;;8.88;3.78;;;4.20;98.50;;;;;;4905153;29;20220;-74
2023/12/28 01:41:12;;;;;;;8.07;3.95;;;4.10;98.40;;;;;;4906704;29;20035;-74
2023/12/28 01:43:38;;;;;;;8.43;4.18;;;4.00;98.80;;;;;;4906177;29;20048;-71
2023/12/28 01:46:15;;;;;;;10.63;4.97;;;4.00;99.50;;;;;;4906831;29;20024;-72
2023/12/28 01:48:42;;;;;;;6.13;4.00;;;3.80;99.70;;;;;;4909309;29;20051;-76
2023/12/28 01:51:08;;;;;;;9.45;4.10;;;3.70;99.90;;;;;;4909435;29;20036;-71
2023/12/28 01:53:33;;;;;;;7.32;4.15;;;3.70;99.90;;;;;;4908778;29;20180;-71
2023/12/28 01:56:00;;;;;;;8.50;3.67;;;3.70;99.90;;;;;;4910396;29;20239;-72
2023/12/28 01:58:28;;;;;;;7.05;3.53;;;3.70;99.90;;;;;;4909309;29;20047;-73
2023/12/28 02:00:56;;;;;;;7.55;4.22;;;3.60;99.90;;;;;;4893759;29;20307;-72
2023/12/28 02:03:22;;;;;;;6.85;4.10;;;3.60;99.90;;;;;;4893401;29;20072;-73
2023/12/28 02:05:48;;;;;;;6.88;4.15;;;3.50;99.90;;;;;;4909875;29;20230;-73
2023/12/28 02:08:13;;;;;;;8.75;4.70;;;3.50;99.90;;;;;;4909318;29;20036;-73
2023/12/28 02:10:39;;;;;;;8.85;4.88;;;3.50;99.90;;;;;;4909383;29;20286;-73
2023/12/28 02:13:06;;;;;;;9.15;4.97;;;3.40;99.90;;;;;;4909104;29;20032;-71
2023/12/28 02:15:31;;;;;;;10.55;4.60;;;3.40;99.90;;;;;;4908439;29;20073;-72
2023/12/28 02:18:15;;;;;;;7.40;4.25;;;3.30;99.90;;;;;;4893269;29;20036;-72
2023/12/28 02:20:42;;;;;;;12.10;4.70;;;3.30;99.90;;;;;;4909330;29;20047;-74
2023/12/28 02:23:09;;;;;;;9.85;4.85;;;3.20;99.90;;;;;;4909897;29;20041;-71
2023/12/28 02:25:35;;;;;;;7.47;4.47;;;3.20;99.90;;;;;;4909354;29;20095;-72
2023/12/28 02:28:01;;;;;;;7.47;4.18;;;3.20;99.90;;;;;;4910290;29;20354;-73
2023/12/28 02:30:29;;;;;;;7.70;4.28;;;3.10;99.90;;;;;;4909828;29;20036;-74
2023/12/28 02:33:22;;;;;;;7.65;4.25;;;3.20;99.90;;;;;;4908734;29;20200;-72
2023/12/28 02:36:10;;;;;;;8.35;4.13;;;3.20;99.90;;;;;;4892383;29;20154;-72
2023/12/28 02:38:38;;;;;;;8.32;4.22;;;3.20;99.90;;;;;;4909040;29;20046;-73
2023/12/28 02:41:05;;;;;;;6.70;3.58;;;3.30;99.90;;;;;;4909885;29;20282;-72
2023/12/28 02:43:31;;;;;;;8.57;4.53;;;3.20;99.90;;;;;;4909132;29;20028;-74
2023/12/28 02:45:57;;;;;;;8.85;4.50;;;3.20;99.90;;;;;;4908401;29;20028;-72
2023/12/28 02:48:23;;;;;;;9.68;4.55;;;3.20;99.90;;;;;;4909558;29;20236;-73
2023/12/28 02:50:49;;;;;;;8.00;4.38;;;3.20;99.90;;;;;;4908651;29;20048;-71
2023/12/28 02:53:14;;;;;;;8.57;4.25;;;3.20;99.90;;;;;;4908336;29;20099;-71
2023/12/28 02:55:40;;;;;;;8.32;4.30;;;3.20;99.90;;;;;;4892090;29;20025;-71
2023/12/28 02:58:06;;;;;;;7.93;4.10;;;3.20;99.90;;;;;;4909245;29;20036;-73
2023/12/28 03:00:31;;;;;;;9.20;4.40;;;3.20;99.90;;;;;;4908084;29;20024;-72
2023/12/28 03:02:57;;;;;;;9.13;4.40;;;3.10;99.90;;;;;;4908950;29;20115;-71
2023/12/28 03:05:23;;;;;;;8.48;4.68;;;3.10;99.90;;;;;;4892672;29;20283;-72
2023/12/28 03:07:49;;;;;;;9.18;4.32;;;3.10;99.90;;;;;;4907468;29;20044;-72
2023/12/28 03:10:15;;;;;;;8.05;4.18;;;3.10;99.90;;;;;;4892515;29;20033;-71
2023/12/28 03:12:41;;;;;;;7.57;3.90;;;3.10;99.90;;;;;;4908631;29;20145;-71
2023/12/28 03:15:07;;;;;;;18.10;4.43;;;3.10;99.90;;;;;;4908990;29;20025;-71
2023/12/28 03:17:33;;;;;;;6.70;3.88;;;3.10;99.90;;;;;;4908456;29;20047;-72
2023/12/28 03:20:03;;;;;;;6.50;4.03;;;3.20;99.90;;;;;;4909264;29;20056;-70
2023/12/28 03:22:32;;;;;;;8.38;4.00;;;3.10;99.90;;;;;;4908522;29;20092;-72
2023/12/28 03:24:58;;;;;;;7.47;3.63;;;3.20;99.90;;;;;;4908825;29;20047;-74
2023/12/28 03:27:23;;;;;;;8.73;3.75;;;3.20;99.90;;;;;;4908695;29;20215;-71
2023/12/28 03:29:49;;;;;;;6.20;3.67;;;3.20;99.90;;;;;;4907101;29;20029;-72
2023/12/28 03:32:15;;;;;;;7.40;4.22;;;3.20;99.90;;;;;;4908755;29;20119;-73
2023/12/28 03:34:41;;;;;;;6.15;3.88;;;3.30;99.90;;;;;;4907915;29;20224;-71
2023/12/28 03:37:07;;;;;;;5.95;3.60;;;3.30;99.90;;;;;;4908664;29;20076;-75
2023/12/28 03:39:33;;;;;;;8.45;4.05;;;3.30;99.90;;;;;;4908092;29;20044;-73
2023/12/28 03:41:59;;;;;;;8.48;3.83;;;3.30;99.90;;;;;;4907514;29;20280;-73
2023/12/28 03:44:25;;;;;;;7.88;3.50;;;3.30;99.90;;;;;;4876688;29;20020;-74
2023/12/28 03:46:51;;;;;;;7.07;3.22;;;3.40;99.90;;;;;;4907893;29;20315;-72
2023/12/28 03:49:20;;;;;;;7.15;3.20;;;3.40;99.90;;;;;;4908390;29;20040;-73
2023/12/28 03:51:50;;;;;;;8.77;3.80;;;3.40;99.90;;;;;;4907980;29;20028;-72
2023/12/28 03:54:19;;;;;;;5.07;2.65;;;3.40;99.90;;;;;;4908425;29;20206;-72
2023/12/28 03:56:48;;;;;;;6.68;3.40;;;3.40;99.90;;;;;;4906540;29;20329;-71
2023/12/28 03:59:17;;;;;;;6.22;3.08;;;3.50;99.90;;;;;;4907398;29;20310;-70
2023/12/28 04:01:43;;;;;;;5.65;3.25;;;3.40;99.90;;;;;;4908043;29;20319;-72
2023/12/28 04:04:09;;;;;;;6.03;3.40;;;3.40;99.90;;;;;;4908500;29;20056;-71
2023/12/28 04:06:36;;;;;;;6.13;3.08;;;3.40;99.90;;;;;;4907441;29;20063;-71
2023/12/28 04:09:02;;;;;;;7.88;3.70;;;3.40;99.90;;;;;;4908018;29;20040;-72
2023/12/28 04:11:28;;;;;;;7.50;3.60;;;3.40;99.90;;;;;;4907719;29;20195;-72
2023/12/28 04:13:54;;;;;;;7.50;3.80;;;3.40;99.90;;;;;;4908099;29;20180;-71
2023/12/28 04:16:20;;;;;;;6.65;3.25;;;3.40;99.90;;;;;;4906728;29;20245;-71
2023/12/28 04:18:46;;;;;;;8.75;3.45;;;3.40;99.90;;;;;;4907277;29;20075;-72
2023/12/28 04:21:13;;;;;;;6.32;2.97;;;3.40;99.90;;;;;;4906392;29;20020;-71
2023/12/28 04:23:40;;;;;;;8.05;3.08;;;3.40;99.90;;;;;;4907367;29;20079;-71
2023/12/28 04:26:06;;;;;;;6.07;2.85;;;3.40;99.90;;;;;;4907778;29;20211;-72
2023/12/28 04:28:34;;;;;;;5.75;2.95;;;3.50;99.90;;;;;;4890335;29;20036;-72
2023/12/28 04:31:06;;;;;;;6.25;3.05;;;3.50;99.90;;;;;;4907359;29;20288;-72
2023/12/28 04:33:32;;;;;;;6.78;3.35;;;3.60;99.90;;;;;;4905912;29;20107;-76
2023/12/28 04:36:05;;;;;;;5.63;2.80;;;3.60;99.90;;;;;;4906167;29;20068;-73
2023/12/28 04:38:31;;;;;;;6.65;2.90;;;3.70;99.90;;;;;;4905866;29;20330;-72
2023/12/28 04:41:02;;;;;;;4.03;2.80;;;3.80;99.90;;;;;;4906395;29;20207;-72
2023/12/28 04:43:28;;;;;;;4.20;2.28;;;3.90;99.90;;;;;;4907492;29;20072;-71
2023/12/28 04:45:54;;;;;;;5.82;2.80;;;4.00;99.90;;;;;;4906327;29;20055;-71
2023/12/28 04:48:20;;;;;;;7.13;2.75;;;4.10;99.90;;;;;;4907653;29;20214;-74
2023/12/28 04:50:48;;;;;;;5.78;3.28;;;4.10;99.90;;;;;;4906834;29;20268;-72
2023/12/28 04:53:13;;;;;;;5.22;2.97;;;4.10;99.90;;;;;;4906302;29;20390;-71
2023/12/28 04:55:39;;;;;;;5.93;3.00;;;4.10;99.90;;;;;;4906578;29;20110;-74
2023/12/28 04:58:05;;;;;;;6.78;2.90;;;4.10;99.90;;;;;;4907330;29;20035;-74
2023/12/28 05:00:30;;;;;;;7.00;2.75;;;4.10;99.90;;;;;;4906421;29;20104;-71
2023/12/28 05:02:56;;;;;;;8.18;3.70;;;4.10;99.90;;;;;;4905814;29;20303;-70
2023/12/28 05:05:22;;;;;;;8.40;3.50;;;4.10;99.90;;;;;;4906321;29;20382;-72
2023/12/28 05:07:48;;;;;;;7.82;3.65;;;4.10;99.90;;;;;;4906446;29;20101;-72
2023/12/28 05:10:14;;;;;;;5.32;3.40;;;4.10;99.90;;;;;;4907040;29;20064;-72
2023/12/28 05:12:39;;;;;;;5.63;3.40;;;4.10;99.90;;;;;;4906603;29;20089;-72
2023/12/28 05:15:06;;;;;;;6.22;3.08;;;4.10;99.70;;;;;;4907063;29;20029;-73
2023/12/28 05:17:31;;;;;;;3.95;1.95;;;4.10;99.90;;;;;;4906143;29;20056;-73
2023/12/28 05:19:57;;;;;;;5.88;2.60;;;4.30;99.10;;;;;;4906962;29;20029;-74
2023/12/28 05:22:23;;;;;;;5.45;2.80;;;4.50;99.10;;;;;;4906038;29;20071;-72
2023/12/28 05:24:48;;;;;;;6.97;2.60;;;4.60;98.90;;;;;;4905009;29;20044;-72
2023/12/28 05:27:14;;;;;;;4.07;2.45;;;4.70;98.80;;;;;;4906024;29;20075;-75
2023/12/28 05:29:40;;;;;;;6.22;2.78;;;4.80;98.90;;;;;;4906277;29;20065;-73
2023/12/28 05:32:06;;;;;;;5.72;3.30;;;4.90;99.00;;;;;;4906694;29;20315;-70
2023/12/28 05:34:31;;;;;;;7.22;3.17;;;4.90;99.00;;;;;;4906511;29;20333;-71
2023/12/28 05:36:57;;;;;;;5.82;2.88;;;4.90;99.20;;;;;;4906970;29;20043;-70
2023/12/28 05:39:23;;;;;;;6.13;3.30;;;4.90;99.30;;;;;;4906868;29;20071;-72
2023/12/28 05:41:50;;;;;;;5.00;2.22;;;4.90;99.20;;;;;;4906303;29;20048;-71
2023/12/28 05:44:17;;;;;;;8.33;3.53;;;5.00;98.80;;;;;;4906823;29;20052;-71
2023/12/28 05:46:42;;;;;;;3.38;1.63;;;5.10;98.50;;;;;;4906130;29;20032;-72
2023/12/28 05:49:08;;;;;;;5.97;2.42;;;5.40;97.20;;;;;;4906900;29;20104;-73
2023/12/28 05:51:40;;;;;;;5.68;2.83;;;5.80;96.50;;;;;;4906442;29;20048;-74
2023/12/28 05:54:07;;;;;;;12.35;4.95;;;6.00;96.10;;;;;;4890337;29;20071;-73
2023/12/28 05:56:32;;;;;;;16.08;7.07;;;6.00;96.60;;;;;;4905209;29;20029;-73
2023/12/28 05:58:58;;;;;;;19.73;7.57;;;5.90;97.00;;;;;;4890368;29;20274;-73
2023/12/28 06:01:24;;;;;;;20.80;7.85;;;5.80;96.80;;;;;;4905696;29;20319;-73
2023/12/28 06:03:52;;;;;;;4.43;1.90;;;5.70;96.90;;;;;;4906252;29;20059;-71
2023/12/28 06:06:18;;;;;;;3.28;1.20;;;5.90;95.70;;;;;;4905935;29;20096;-72
2023/12/28 06:08:44;;;;;;;2.58;1.05;;;6.50;94.20;;;;;;4905105;29;20040;-73
2023/12/28 06:11:09;;;;;;;3.05;1.05;;;7.10;93.20;;;;;;4906947;29;20047;-73
2023/12/28 06:13:35;;;;;;;4.57;1.10;;;7.80;92.00;;;;;;4889532;29;20045;-73
2023/12/28 06:16:01;;;;;;;4.55;1.08;;;8.20;91.30;;;;;;4906522;29;20045;-73
2023/12/28 06:18:27;;;;;;;3.55;0.90;;;8.50;90.80;;;;;;4906619;29;20311;-75
2023/12/28 06:20:52;;;;;;;2.05;0.82;;;8.90;90.50;;;;;;4906115;29;20052;-73
2023/12/28 06:23:18;;;;;;;2.67;0.90;;;9.20;90.20;;;;;;4905297;29;20048;-73
2023/12/28 06:25:44;;;;;;;2.83;1.10;;;9.40;89.80;;;;;;4905884;29;20067;-72
2023/12/28 06:28:10;;;;;;;2.10;0.90;;;9.40;89.50;;;;;;4905263;29;20032;-72
2023/12/28 06:30:36;;;;;;;2.78;0.95;;;9.50;89.80;;;;;;4888751;29;20028;-72
2023/12/28 06:33:01;;;;;;;2.50;1.10;;;9.50;89.80;;;;;;4906974;29;20077;-74
2023/12/28 06:35:27;;;;;;;2.60;0.90;;;9.60;89.70;;;;;;4909564;29;20216;-71
2023/12/28 06:37:52;;;;;;;2.80;1.25;;;9.60;89.80;;;;;;4908870;29;20043;-71
2023/12/28 06:40:18;;;;;;;7.20;2.50;;;9.60;90.10;;;;;;4909880;29;20338;-71
2023/12/28 06:42:44;;;;;;;8.38;3.58;;;9.50;90.30;;;;;;4907918;29;20152;-71
2023/12/28 06:45:10;;;;;;;10.80;4.28;;;9.20;91.00;;;;;;4909707;29;20036;-72
2023/12/28 06:47:36;;;;;;;9.13;3.97;;;8.80;91.60;;;;;;4907891;29;20107;-70
2023/12/28 06:50:02;;;;;;;8.75;3.90;;;8.50;92.10;;;;;;4909409;29;20036;-73
2023/12/28 06:52:28;;;;;;;5.95;2.72;;;8.10;92.70;;;;;;4909730;29;20215;-71
2023/12/28 06:54:54;;;;;;;4.60;2.17;;;8.10;93.40;;;;;;4893058;29;20024;-73
2023/12/28 06:57:20;;;;;;;4.68;2.03;;;8.30;93.10;;;;;;4909746;29;20041;-73
2023/12/28 06:59:45;;;;;;;7.40;3.63;;;8.40;92.90;;;;;;4907778;29;20091;-74
2023/12/28 07:02:11;;;;;;;7.15;3.63;;;8.30;92.50;;;;;;4908499;29;20202;-72
2023/12/28 07:04:38;;;;;;;8.30;3.95;;;8.10;93.00;;;;;;4908655;29;20056;-75
2023/12/28 07:07:03;;;;;;;9.70;4.10;;;7.80;93.70;;;;;;4908186;29;20067;-73
2023/12/28 07:09:29;;;;;;;6.43;3.53;;;7.60;94.50;;;;;;4909080;29;20032;-74
2023/12/28 07:11:55;;;;;;;8.68;3.70;;;7.40;95.00;;;;;;4909295;29;20108;-73
2023/12/28 07:14:20;;;;;;;6.15;3.85;;;7.30;95.30;;;;;;4909037;29;20040;-73
2023/12/28 07:16:46;;;;;;;9.27;4.00;;;7.20;95.40;;;;;;4908691;29;20028;-73
2023/12/28 07:19:11;;;;;;;7.55;4.45;;;7.20;95.40;;;;;;4908249;29;20036;-75
2023/12/28 07:21:37;;;;;;;11.02;4.10;;;7.10;95.50;;;;;;4908605;29;20060;-77
2023/12/28 07:24:03;;;;;;;7.90;4.10;;;7.10;95.50;;;;;;4908045;29;20299;-73
2023/12/28 07:26:29;;;;;;;8.30;3.67;;;7.10;95.70;;;;;;4908661;29;20033;-72
2023/12/28 07:28:54;;;;;;;8.95;3.80;;;7.10;95.60;;;;;;4908908;29;20040;-72
2023/12/28 07:31:28;;;;;;;7.82;3.75;;;7.10;95.70;;;;;;4909107;29;20032;-73
2023/12/28 07:33:54;;;;;;;11.05;4.85;;;7.10;95.90;;;;;;4909111;29;20370;-73
2023/12/28 07:36:20;;;;;;;12.43;5.22;;;7.10;95.50;;;;;;4907964;29;20036;-71
2023/12/28 07:38:46;;;;;;;15.07;5.20;;;7.10;95.80;;;;;;4908213;29;20025;-73
2023/12/28 07:41:12;;;;;;;8.85;4.95;;;7.10;95.80;;;;;;4909002;29;20092;-73
2023/12/28 07:43:37;;;;;;;8.07;4.18;;;7.10;95.70;;;;;;4908332;29;20040;-74
2023/12/28 07:46:03;;;;;;;7.28;3.55;;;7.10;95.70;;;;;;4907946;29;20044;-73
2023/12/28 07:48:30;;;;;;;9.55;3.97;;;7.10;95.80;;;;;;4891340;29;20128;-71
2023/12/28 07:50:57;;;;;;;7.00;3.58;;;7.00;95.50;;;;;;4908494;29;20097;-72
2023/12/28 07:53:23;;;;;;;8.15;3.63;;;7.10;95.70;;;;;;4907720;29;20309;-73
2023/12/28 07:55:48;;;;;;;7.55;3.78;;;7.00;95.80;;;;;;4908123;29;20052;-73
2023/12/28 07:58:15;;;;;;;6.32;3.60;;;7.10;96.10;;;;;;4908877;29;20165;-73
2023/12/28 08:00:41;;;;;;;7.70;3.42;;;7.10;96.10;;;;;;4908093;29;20031;-73
2023/12/28 08:03:06;;;;;;;7.30;3.75;;;7.10;96.00;;;;;;4908205;29;20079;-72
2023/12/28 08:05:32;;;;;;;10.15;4.32;;;7.10;95.60;;;;;;4907976;29;20036;-72
2023/12/28 08:07:58;;;;;;;8.75;5.07;;;7.20;95.80;;;;;;4908339;29;20028;-73
2023/12/28 08:10:23;;;;;;;8.57;4.80;;;7.20;95.70;;;;;;4907285;29;20028;-73
2023/12/28 08:12:50;;;;;;;10.13;5.85;;;7.20;96.00;;;;;;4907158;29;20049;-72
2023/12/28 08:15:16;;;;;;;10.07;4.72;;;7.10;95.80;;;;;;4907983;29;20048;-72
2023/12/28 08:17:41;;;;;;;8.57;4.22;;;7.20;95.80;;;;;;4907150;29;20076;-73
2023/12/28 08:20:07;;;;;;;9.95;4.72;;;7.20;95.80;;;;;;4907733;29;20043;-74
2023/12/28 08:22:33;;;;;;;10.55;3.97;;;7.20;95.70;;;;;;4907537;29;20020;-72
2023/12/28 08:24:59;;;;;;;8.15;3.88;;;7.30;95.70;;;;;;4908094;29;20039;-71
2023/12/28 08:27:24;;;;;;;8.93;4.05;;;7.30;95.60;;;;;;4908136;29;20040;-72
2023/12/28 08:29:50;;;;;;;9.07;4.40;;;7.40;95.70;;;;;;4907291;29;20037;-73
2023/12/28 08:32:17;;;;;;;9.43;4.60;;;7.40;95.60;;;;;;4907991;29;20048;-73
2023/12/28 08:34:43;;;;;;;9.80;4.05;;;7.50;95.90;;;;;;4907448;29;20256;-73
2023/12/28 08:37:09;;;;;;;8.52;4.22;;;7.60;95.60;;;;;;4908006;29;20212;-74
2023/12/28 08:39:34;;;;;;;10.68;4.70;;;7.70;96.10;;;;;;4907333;29;20036;-72
2023/12/28 08:42:00;;;;;;;11.45;4.72;;;7.70;95.90;;;;;;4907553;29;20060;-72
2023/12/28 08:44:26;;;;;;;9.20;4.57;;;7.80;96.10;;;;;;4907715;29;20031;-76
2023/12/28 08:46:52;;;;;;;10.18;4.85;;;7.80;96.10;;;;;;4905805;29;20033;-76
2023/12/28 08:49:17;;;;;;;10.00;4.93;;;7.80;95.90;;;;;;4906262;29;20036;-73
2023/12/28 08:51:43;;;;;;;10.38;4.75;;;7.80;95.80;;;;;;4907200;29;20091;-73
2023/12/28 08:54:09;;;;;;;11.48;5.03;;;7.80;95.90;;;;;;4890944;29;20029;-72
2023/12/28 08:56:35;;;;;;;11.00;4.78;;;7.80;96.00;;;;;;4906357;29;20316;-73
2023/12/28 08:59:01;;;;;;;10.70;4.82;;;7.90;96.20;;;;;;4906604;29;20184;-74
2023/12/28 09:01:29;;;;;;;10.18;5.00;;;7.90;96.20;;;;;;4906368;29;20042;-72
2023/12/28 09:03:55;;;;;;;12.10;5.03;;;7.90;95.80;;;;;;4907643;29;20116;-73
2023/12/28 09:06:21;;;;;;;9.80;5.07;;;8.00;96.10;;;;;;4907283;29;20032;-74
2023/12/28 09:08:51;;;;;;;9.45;4.90;;;8.00;96.00;;;;;;4906862;29;20044;-72
2023/12/28 09:11:18;;;;;;;10.82;5.13;;;8.00;96.10;;;;;;4907215;29;20100;-74
2023/12/28 09:13:44;;;;;;;9.45;4.78;;;8.00;95.70;;;;;;4906711;29;20179;-72
2023/12/28 09:16:14;;;;;;;9.68;5.18;;;7.90;95.90;;;;;;4906229;29;20047;-74
2023/12/28 09:18:40;;;;;;;8.10;4.07;;;7.90;95.90;;;;;;4906524;29;20096;-72
2023/12/28 09:21:07;;;;;;;9.90;5.30;;;7.90;96.00;;;;;;4890603;29;20079;-72
2023/12/28 09:23:34;;;;;;;11.77;5.05;;;7.80;96.40;;;;;;4906401;29;20092;-71
2023/12/28 09:26:04;;;;;;;8.23;4.55;;;7.80;96.30;;;;;;4905800;29;20100;-73
2023/12/28 09:28:33;;;;;;;8.85;4.90;;;7.90;96.40;;;;;;4906046;29;20027;-72
2023/12/28 09:31:00;;;;;;;10.27;4.32;;;7.90;96.60;;;;;;4906797;29;20067;-75
2023/12/28 09:33:26;;;;;;;12.23;5.63;;;7.90;96.20;;;;;;4906853;29;20040;-72
2023/12/28 09:35:53;;;;;;;11.38;5.50;;;8.00;96.50;;;;;;4906222;29;20044;-73
2023/12/28 09:38:19;;;;;;;12.30;5.90;;;8.10;96.50;;;;;;4906727;29;20374;-72
2023/12/28 09:40:45;;;;;;;9.73;5.32;;;8.20;96.60;;;;;;4906358;29;20024;-73
2023/12/28 09:43:23;;;;;;;12.02;6.95;;;8.40;97.10;;;;;;4905864;29;20027;-74
2023/12/28 09:45:49;;;;;;;11.23;5.60;;;8.50;96.70;;;;;;4906459;29;20064;-72
2023/12/28 09:48:19;;;;;;;10.20;5.78;;;8.60;96.90;;;;;;4905831;29;20048;-73
2023/12/28 09:50:54;;;;;;;10.07;5.15;;;8.80;97.50;;;;;;4906102;29;20099;-73
2023/12/28 09:53:23;;;;;;;11.00;5.05;;;8.90;97.10;;;;;;4907142;29;20035;-73
2023/12/28 09:55:51;;;;;;;12.32;5.57;;;9.00;97.20;;;;;;4905976;29;20085;-72
2023/12/28 09:58:19;;;;;;;10.48;5.00;;;9.00;96.50;;;;;;4906741;29;20021;-73
2023/12/28 10:00:45;;;;;;;11.40;5.40;;;9.00;96.10;;;;;;4906133;29;20033;-74
2023/12/28 10:03:13;;;;;;;9.52;5.18;;;8.90;96.10;;;;;;4906574;29;20048;-73
2023/12/28 10:05:41;;;;;;;9.87;5.07;;;8.90;96.20;;;;;;4906241;29;20081;-72
2023/12/28 10:08:07;;;;;;;11.80;5.65;;;8.90;96.20;;;;;;4907356;29;20062;-73
2023/12/28 10:10:34;;;;;;;9.00;5.30;;;8.90;96.30;;;;;;4909875;29;20039;-74
2023/12/28 10:13:00;;;;;;;9.82;4.90;;;8.90;96.20;;;;;;4910496;29;20025;-73
2023/12/28 10:15:26;;;;;;;10.77;5.05;;;8.80;96.10;;;;;;4910404;29;20044;-73
2023/12/28 10:17:52;;;;;;;11.30;4.90;;;8.80;95.90;;;;;;4909840;29;20211;-72
2023/12/28 10:20:18;;;;;;;12.55;4.80;;;8.80;95.80;;;;;;4910052;29;20020;-74
2023/12/28 10:22:44;;;;;;;11.68;4.82;;;8.90;96.00;;;;;;4909187;29;20168;-71
2023/12/28 10:25:12;;;;;;;13.35;5.43;;;8.90;95.90;;;;;;4909918;29;20063;-72
2023/12/28 10:27:43;;;;;;;9.27;3.63;;;8.90;95.90;;;;;;4909830;29;20035;-73
2023/12/28 10:30:12;;;;;;;9.25;4.50;;;8.90;96.10;;;;;;4910096;29;20075;-72
2023/12/28 10:32:41;;;;;;;10.23;4.07;;;9.00;96.00;;;;;;4909461;29;20280;-73
2023/12/28 10:35:07;;;;;;;8.80;4.30;;;9.00;96.00;;;;;;4910197;29;20028;-73
2023/12/28 10:37:37;;;;;;;9.13;3.38;;;9.20;95.90;;;;;;4909109;29;20021;-73
2023/12/28 10:40:07;;;;;;;8.23;3.75;;;9.40;96.10;;;;;;4909968;29;20208;-74
2023/12/28 10:42:42;;;;;;;4.35;2.47;;;9.40;95.60;;;;;;4909141;29;20036;-74
2023/12/28 10:45:10;;;;;;;7.63;3.42;;;9.50;95.90;;;;;;4893242;29;20041;-74
2023/12/28 10:47:37;;;;;;;;;;;9.60;95.40;;;;;;4908735;29;20040;-73
2023/12/28 10:50:05;;;;;;;3.60;1.42;;;9.80;95.80;;;;;;4908538;29;19943;-75
2023/12/28 10:52:32;;;;;;;2.90;1.27;;;10.20;95.60;;;;;;4907895;29;20048;-73
2023/12/28 10:55:26;;;;;;;2.85;1.17;;;10.70;94.90;;;;;;4909648;29;20081;-72
2023/12/28 10:58:29;;;;;;;2.42;1.10;;;11.10;94.40;;;;;;4909045;29;20039;-72
2023/12/28 11:01:02;;;;;;;4.05;1.00;;;11.30;94.10;;;;;;4889490;29;20096;-70
2023/12/28 11:03:34;;;;;;;2.17;0.80;;;11.50;93.80;;;;;;4909408;29;20119;-75
2023/12/28 11:06:01;;;;;;;2.97;1.10;;;11.70;93.80;;;;;;4909533;29;20060;-74
2023/12/28 11:08:27;;;;;;;3.30;1.20;;;11.70;93.60;;;;;;4909218;29;20045;-73
2023/12/28 11:10:54;;;;;;;4.60;1.38;;;11.70;93.60;;;;;;4909031;29;20028;-72
2023/12/28 11:13:21;;;;;;;2.50;0.80;;;11.80;93.70;;;;;;4909227;29;20353;-74
2023/12/28 11:15:48;;;;;;;3.73;1.07;;;11.80;93.70;;;;;;4908851;29;20334;-73
2023/12/28 11:18:15;;;;;;;2.40;0.95;;;11.80;93.70;;;;;;4909425;29;20029;-72
2023/12/28 11:20:43;;;;;;;2.70;1.13;;;11.80;93.80;;;;;;4907591;29;20307;-73
2023/12/28 11:23:10;;;;;;;4.80;1.65;;;11.80;93.90;;;;;;4909085;29;20040;-72
2023/12/28 11:25:36;;;;;;;2.65;0.88;;;11.80;93.80;;;;;;4907285;29;20219;-72
2023/12/28 11:28:11;;;;;;;2.65;1.00;;;11.80;94.40;;;;;;4907815;29;20099;-72
2023/12/28 11:30:41;;;;;;;3.03;1.10;;;11.90;94.10;;;;;;4908292;29;20116;-73
2023/12/28 11:33:07;;;;;;;4.35;1.00;;;11.90;94.20;;;;;;4908076;29;20059;-70
2023/12/28 11:35:37;;;;;;;2.60;1.30;;;11.90;94.30;;;;;;4908143;29;20307;-72
2023/12/28 11:38:08;;;;;;;3.55;1.23;;;11.80;94.50;;;;;;4907845;29;20032;-71
2023/12/28 11:40:41;;;;;;;2.40;1.20;;;11.90;94.70;;;;;;4907268;29;20103;-71
2023/12/28 11:43:18;;;;;;;1.77;0.75;;;11.80;94.90;;;;;;4892108;29;20112;-72
2023/12/28 11:45:49;;;;;;;6.65;1.58;;;11.80;95.00;;;;;;4907940;29;20424;-72
2023/12/28 11:48:24;;;;;;;3.30;1.00;;;11.90;95.00;;;;;;4908657;29;20096;-76
2023/12/28 11:50:50;;;;;;;2.70;0.90;;;11.90;95.10;;;;;;4891304;29;20128;-73
2023/12/28 11:53:16;;;;;;;3.47;1.00;;;11.90;95.20;;;;;;4908327;29;20311;-72
2023/12/28 11:55:42;;;;;;;2.15;0.85;;;11.90;95.20;;;;;;4907717;29;20027;-73
2023/12/28 11:58:07;;;;;;;2.40;1.00;;;11.90;95.20;;;;;;4908689;29;20099;-71
2023/12/28 12:00:33;;;;;;;3.08;0.90;;;11.90;95.30;;;;;;4906596;29;20044;-73
2023/12/28 12:02:59;;;;;;;3.00;1.02;;;11.90;95.30;;;;;;4907981;29;20053;-75
2023/12/28 12:05:24;;;;;;;2.22;0.88;;;12.00;95.40;;;;;;4908620;29;20095;-71
2023/12/28 12:07:50;;;;;;;3.05;0.98;;;12.00;95.30;;;;;;4907385;29;20168;-72
2023/12/28 12:10:16;;;;;;;2.20;1.08;;;12.00;95.10;;;;;;4908413;29;20032;-74
2023/12/28 12:12:42;;;;;;;3.35;0.90;;;12.00;95.30;;;;;;4907454;29;20370;-71
2023/12/28 12:15:08;;;;;;;2.08;1.00;;;12.00;95.20;;;;;;4907249;29;20204;-72
2023/12/28 12:17:34;;;;;;;2.60;1.10;;;12.00;95.20;;;;;;4907538;29;20068;-72
2023/12/28 12:20:02;;;;;;;2.03;1.00;;;12.00;95.30;;;;;;4907657;29;20037;-73
2023/12/28 12:22:27;;;;;;;3.20;1.10;;;12.10;95.20;;;;;;4907749;29;20084;-71
2023/12/28 12:24:55;;;;;;;2.55;0.90;;;12.10;95.30;;;;;;4907639;29;20029;-72
2023/12/28 12:27:21;;;;;;;2.65;1.20;;;12.10;95.20;;;;;;4907927;29;20306;-72
2023/12/28 12:29:47;;;;;;;3.67;1.50;;;12.20;95.40;;;;;;4906934;29;20052;-74
2023/12/28 12:32:13;;;;;;;3.15;1.30;;;12.20;95.10;;;;;;4906561;29;20024;-73
2023/12/28 12:34:39;;;;;;;2.42;0.93;;;12.20;95.10;;;;;;4907241;29;20032;-73
2023/12/28 12:37:05;;;;;;;5.22;1.10;;;12.20;95.10;;;;;;4907731;29;20264;-72
2023/12/28 12:39:32;;;;;;;3.25;1.30;;;12.20;95.00;;;;;;4907131;29;20073;-73
2023/12/28 12:41:58;;;;;;;4.13;1.45;;;12.30;94.60;;;;;;4907593;29;20036;-72
2023/12/28 12:44:24;;;;;;;3.42;1.40;;;12.30;94.70;;;;;;4907804;29;20038;-72
2023/12/28 12:46:59;;;;;;;3.08;1.30;;;12.30;94.50;;;;;;4905979;29;20021;-72
2023/12/28 12:49:26;;;;;;;2.92;1.40;;;12.20;94.70;;;;;;4907325;29;20103;-72
2023/12/28 12:51:52;;;;;;;2.88;1.10;;;12.20;94.50;;;;;;4906685;29;20036;-71